Flight Track Log - Related Links

Times and Time Zones

All times are in EDT time to prevent confusion due to time zone crossing. See the PDT4155 flight status page for this flight to view local times or setup timezone preferences in your user account.

Time Position Orientation Groundspeed Altitude Reporting Facility
EDT Latitude Longitude Course Direction KTS MPH feet Rate Location/Type
Wed 07:01:00 AM 42.0348 -75.9228 180° South  Level Estimated
Wed 07:02:00 AM 41.9753 -75.9250 182° South  Level FlightAware Approximate
Wed 07:03:00 AM 41.9158 -75.9272 182° South  Level FlightAware Approximate
Wed 07:04:00 AM 41.8581 -75.9072 154° Southeast  Level Estimated
Wed 07:05:00 AM 41.8004 -75.8873 160° South  Level Estimated
Wed 07:06:00 AM 41.7428 -75.8674 159° South  Level Estimated
Wed 07:07:00 AM 41.6845 -75.8512 168° South  Level FlightAware Approximate
Wed 07:08:00 AM 41.6261 -75.8350 168° South  Level FlightAware Approximate
Wed 07:09:00 AM 41.5685 -75.8149 153° Southeast  Level Estimated
Wed 07:10:00 AM 41.5109 -75.7949 161° South  Level Estimated
Wed 07:11:00 AM 41.4546 -75.7691 161° South  Level FlightAware Approximate
Wed 07:12:00 AM 41.3982 -75.7433 161° South  Level FlightAware Approximate
Wed 07:13:00 AM 41.3405 -75.7239 162° South  Level Estimated
Wed 07:14:00 AM 41.2842 -75.6978 161° South  Level FlightAware Approximate
Wed 07:15:00 AM 41.2280 -75.6718 161° South  Level FlightAware Approximate
Wed 07:16:00 AM 41.1717 -75.6458 161° South  Level FlightAware Approximate
Wed 07:17:00 AM 41.1155 -75.6198 161° South  Level FlightAware Approximate
Wed 07:18:00 AM 41.0575 -75.6018 163° South  Level Estimated
Wed 07:19:00 AM 41.0011 -75.5766 161° South  Level FlightAware Approximate
Wed 07:20:00 AM 40.9447 -75.5514 161° South  Level FlightAware Approximate
Wed 07:21:00 AM 40.8882 -75.5262 161° South  Level FlightAware Approximate
Wed 07:22:00 AM 40.8318 -75.5011 161° South  Level FlightAware Approximate
Wed 07:23:00 AM 40.7735 -75.4850 190° South  Level Estimated
Wed 07:23:35 AM 40.6833 -75.6000 190° South 265 305 7,000  Level Philadelphia TRACON
Wed 07:24:00 AM 40.7140 -75.4883 182° South  Level FlightAware Approximate
Wed 07:24:11 AM 40.6333 -75.6000 180° South 259 298 7,000  Level Philadelphia TRACON
Wed 07:25:00 AM 40.6545 -75.4916 182° South  Level FlightAware Approximate
Wed 07:25:11 AM 40.5667 -75.5833 169° South 238 274 7,000  Level Philadelphia TRACON
Wed 07:26:00 AM 40.5966 -75.4728 187° South  Level Estimated
Wed 07:26:11 AM 40.5000 -75.5833 180° South 239 275 6,800  Level Philadelphia TRACON
Wed 07:27:00 AM 40.5379 -75.4859 190° South  Level FlightAware Approximate
Wed 07:27:11 AM 40.4333 -75.5500 159° South 277 319 5,900  Level Philadelphia TRACON
Wed 07:28:00 AM 40.4806 -75.4647 190° South  Level Estimated
Wed 07:28:12 AM 40.3667 -75.5000 150° Southeast 260 299 5,200  Level Philadelphia TRACON
Wed 07:29:12 AM 40.3167 -75.4500 143° Southeast 251 289 5,000 -100 Descending Philadelphia TRACON
Wed 07:30:12 AM 40.2667 -75.4000 143° Southeast 236 272 5,000  Level Philadelphia TRACON
Wed 07:31:18 AM 40.2000 -75.3500 150° Southeast 234 269 5,000  Level Philadelphia TRACON
Wed 07:32:18 AM 40.1500 -75.3000 143° Southeast 235 270 5,000 -100 Level Philadelphia TRACON
Wed 07:33:18 AM 40.0833 -75.2500 150° Southeast 237 273 4,800 -550 Descending Philadelphia TRACON
Wed 07:34:18 AM 40.0333 -75.2000 143° Southeast 259 298 3,900 -1,211 Descending Philadelphia TRACON
Wed 07:35:12 AM 39.9833 -75.1667 153° Southeast 239 275 2,500 -1,105 Descending Philadelphia TRACON
Wed 07:36:12 AM 39.9167 -75.1500 169° South 196 226 1,800 -850 Descending Philadelphia TRACON
Wed 07:37:12 AM 39.9000 -75.1667 217° Southwest 101 116 800 -800 Descending Philadelphia TRACON
Wed 07:38:12 AM 39.8833 -75.2000 237° Southwest 92 106 200 -600 Descending Philadelphia TRACON

Login

Don't have an account? Register now (free) for customized features, flight alerts, and more!